Elkview, West Virginia
Current Conditions -  °F | °C
As of 7:54 AM on Saturday 01 Nov 2014 (Local Time) from KCRW Reporting Station
Drizzle Drizzle  
Wind Chill: 37°   Ceiling: 900
Heat Index: 42°   Visibility: 10mi
Dew Point: 38°   Wind: 9mph
Humidity: 85%   Direction: 340°NNW
Pressure: 29.94"   Gusts: NA
Location:  38.44°N, 81.48°W
Report Text: KCRW 011154Z 34008KT 10SM -DZ OVC009 06/03 A2994 RMK AO2 SLP141 P0000 60007 70030 T00560033 10056 20050 53022
Loading
Personal Weather Stations






























Interactive Weather Map
Tropical Storm Tracking
New forecast layout! Learn more

10-Day Weather Forecast

Advertisements
Track Severe Weather on mobile